sensor_id;sensor_type;location;lat;lon;timestamp;temperature;humidity
15959;DHT22;8078;47.822;9.402;2024-01-30T00:01:15;7.20;1.00
15959;DHT22;8078;47.822;9.402;2024-01-30T00:03:41;7.10;1.00
15959;DHT22;8078;47.822;9.402;2024-01-30T00:06:11;7.10;1.00
15959;DHT22;8078;47.822;9.402;2024-01-30T00:08:36;7.10;1.00
15959;DHT22;8078;47.822;9.402;2024-01-30T00:11:02;7.00;1.00
15959;DHT22;8078;47.822;9.402;2024-01-30T00:13:27;7.00;1.00
15959;DHT22;8078;47.822;9.402;2024-01-30T00:15:53;7.00;1.00
15959;DHT22;8078;47.822;9.402;2024-01-30T00:18:19;6.90;1.00
15959;DHT22;8078;47.822;9.402;2024-01-30T00:20:45;6.90;1.00
15959;DHT22;8078;47.822;9.402;2024-01-30T00:23:10;7.00;1.00
15959;DHT22;8078;47.822;9.402;2024-01-30T00:25:36;7.00;1.00
15959;DHT22;8078;47.822;9.402;2024-01-30T00:28:01;7.00;1.00
15959;DHT22;8078;47.822;9.402;2024-01-30T00:30:27;7.00;1.00
15959;DHT22;8078;47.822;9.402;2024-01-30T00:32:53;6.90;1.00
15959;DHT22;8078;47.822;9.402;2024-01-30T00:35:19;6.70;1.00
15959;DHT22;8078;47.822;9.402;2024-01-30T00:37:45;6.70;1.00
15959;DHT22;8078;47.822;9.402;2024-01-30T00:40:10;6.70;1.00
15959;DHT22;8078;47.822;9.402;2024-01-30T00:42:41;6.70;1.00
15959;DHT22;8078;47.822;9.402;2024-01-30T00:45:14;6.60;1.00
15959;DHT22;8078;47.822;9.402;2024-01-30T00:47:41;6.70;1.00
15959;DHT22;8078;47.822;9.402;2024-01-30T00:50:06;6.70;1.00
15959;DHT22;8078;47.822;9.402;2024-01-30T00:52:32;6.60;1.00
15959;DHT22;8078;47.822;9.402;2024-01-30T00:54:59;6.60;1.00
15959;DHT22;8078;47.822;9.402;2024-01-30T00:57:24;6.50;1.00
15959;DHT22;8078;47.822;9.402;2024-01-30T00:59:50;6.50;1.00
15959;DHT22;8078;47.822;9.402;2024-01-30T01:02:15;6.60;1.00
15959;DHT22;8078;47.822;9.402;2024-01-30T01:04:43;6.60;1.00
15959;DHT22;8078;47.822;9.402;2024-01-30T01:07:09;6.60;1.00
15959;DHT22;8078;47.822;9.402;2024-01-30T01:09:35;6.70;1.00
15959;DHT22;8078;47.822;9.402;2024-01-30T01:12:01;6.60;1.00
15959;DHT22;8078;47.822;9.402;2024-01-30T01:14:27;6.70;1.00
15959;DHT22;8078;47.822;9.402;2024-01-30T01:16:52;6.70;1.00
15959;DHT22;8078;47.822;9.402;2024-01-30T01:19:18;6.70;1.00
15959;DHT22;8078;47.822;9.402;2024-01-30T01:21:44;6.40;1.00
15959;DHT22;8078;47.822;9.402;2024-01-30T01:24:09;6.60;1.00
15959;DHT22;8078;47.822;9.402;2024-01-30T01:26:35;6.40;1.00
15959;DHT22;8078;47.822;9.402;2024-01-30T01:29:00;6.60;1.00
15959;DHT22;8078;47.822;9.402;2024-01-30T01:31:26;6.40;1.00
15959;DHT22;8078;47.822;9.402;2024-01-30T01:33:55;6.20;1.00
15959;DHT22;8078;47.822;9.402;2024-01-30T01:36:20;6.50;1.00
15959;DHT22;8078;47.822;9.402;2024-01-30T01:38:46;6.70;1.00
15959;DHT22;8078;47.822;9.402;2024-01-30T01:41:12;6.60;1.00
15959;DHT22;8078;47.822;9.402;2024-01-30T01:43:37;6.70;1.00
15959;DHT22;8078;47.822;9.402;2024-01-30T01:46:05;6.60;1.00
15959;DHT22;8078;47.822;9.402;2024-01-30T01:48:31;6.60;1.00
15959;DHT22;8078;47.822;9.402;2024-01-30T01:50:57;6.50;1.00
15959;DHT22;8078;47.822;9.402;2024-01-30T01:53:23;6.60;1.00
15959;DHT22;8078;47.822;9.402;2024-01-30T01:55:49;6.50;1.00
15959;DHT22;8078;47.822;9.402;2024-01-30T01:58:14;6.50;1.00
15959;DHT22;8078;47.822;9.402;2024-01-30T02:00:41;6.60;1.00
15959;DHT22;8078;47.822;9.402;2024-01-30T02:03:10;6.50;1.00
15959;DHT22;8078;47.822;9.402;2024-01-30T02:05:37;6.50;1.00
15959;DHT22;8078;47.822;9.402;2024-01-30T02:08:03;6.50;1.00
15959;DHT22;8078;47.822;9.402;2024-01-30T02:10:29;6.60;1.00
15959;DHT22;8078;47.822;9.402;2024-01-30T02:12:55;6.60;1.00
15959;DHT22;8078;47.822;9.402;2024-01-30T02:15:21;6.60;1.00
15959;DHT22;8078;47.822;9.402;2024-01-30T02:17:47;6.60;1.00
15959;DHT22;8078;47.822;9.402;2024-01-30T02:20:13;6.60;1.00
15959;DHT22;8078;47.822;9.402;2024-01-30T02:22:39;6.50;1.00
15959;DHT22;8078;47.822;9.402;2024-01-30T02:25:06;6.50;1.00
15959;DHT22;8078;47.822;9.402;2024-01-30T02:27:31;6.50;1.00
15959;DHT22;8078;47.822;9.402;2024-01-30T02:29:57;6.60;1.00
15959;DHT22;8078;47.822;9.402;2024-01-30T02:32:22;6.70;1.00
15959;DHT22;8078;47.822;9.402;2024-01-30T02:34:48;6.70;1.00
15959;DHT22;8078;47.822;9.402;2024-01-30T02:37:13;6.60;1.00
15959;DHT22;8078;47.822;9.402;2024-01-30T02:39:39;6.70;1.00
15959;DHT22;8078;47.822;9.402;2024-01-30T02:42:05;6.90;1.00
15959;DHT22;8078;47.822;9.402;2024-01-30T02:44:30;6.90;1.00
15959;DHT22;8078;47.822;9.402;2024-01-30T02:46:56;6.90;1.00
15959;DHT22;8078;47.822;9.402;2024-01-30T02:49:21;6.80;1.00
15959;DHT22;8078;47.822;9.402;2024-01-30T02:51:47;6.60;1.00
15959;DHT22;8078;47.822;9.402;2024-01-30T02:54:13;6.70;1.00
15959;DHT22;8078;47.822;9.402;2024-01-30T02:56:38;6.80;1.00
15959;DHT22;8078;47.822;9.402;2024-01-30T02:59:04;6.90;1.00
15959;DHT22;8078;47.822;9.402;2024-01-30T03:01:30;7.00;1.00
15959;DHT22;8078;47.822;9.402;2024-01-30T03:03:57;7.00;1.00
15959;DHT22;8078;47.822;9.402;2024-01-30T03:06:22;7.00;1.00
15959;DHT22;8078;47.822;9.402;2024-01-30T03:08:48;7.10;1.00
15959;DHT22;8078;47.822;9.402;2024-01-30T03:11:14;7.20;1.00
15959;DHT22;8078;47.822;9.402;2024-01-30T03:13:39;7.10;1.00
15959;DHT22;8078;47.822;9.402;2024-01-30T03:16:06;6.90;1.00
15959;DHT22;8078;47.822;9.402;2024-01-30T03:18:31;6.70;1.00
15959;DHT22;8078;47.822;9.402;2024-01-30T03:20:57;6.80;1.00
15959;DHT22;8078;47.822;9.402;2024-01-30T03:23:22;6.80;1.00
15959;DHT22;8078;47.822;9.402;2024-01-30T03:25:48;6.90;1.00
15959;DHT22;8078;47.822;9.402;2024-01-30T03:28:14;6.80;1.00
15959;DHT22;8078;47.822;9.402;2024-01-30T03:30:39;6.80;1.00
15959;DHT22;8078;47.822;9.402;2024-01-30T03:33:05;6.90;1.00
15959;DHT22;8078;47.822;9.402;2024-01-30T03:35:30;6.90;1.00
15959;DHT22;8078;47.822;9.402;2024-01-30T03:37:56;6.80;1.00
15959;DHT22;8078;47.822;9.402;2024-01-30T03:40:21;6.80;1.00
15959;DHT22;8078;47.822;9.402;2024-01-30T03:42:47;6.70;1.00
15959;DHT22;8078;47.822;9.402;2024-01-30T03:45:12;6.70;1.00
15959;DHT22;8078;47.822;9.402;2024-01-30T03:47:38;6.60;1.00
15959;DHT22;8078;47.822;9.402;2024-01-30T03:50:04;6.70;1.00
15959;DHT22;8078;47.822;9.402;2024-01-30T03:52:30;6.70;1.00
15959;DHT22;8078;47.822;9.402;2024-01-30T03:54:55;6.70;1.00
15959;DHT22;8078;47.822;9.402;2024-01-30T03:57:21;6.60;1.00
15959;DHT22;8078;47.822;9.402;2024-01-30T03:59:47;6.60;1.00
15959;DHT22;8078;47.822;9.402;2024-01-30T04:02:13;6.50;1.00
15959;DHT22;8078;47.822;9.402;2024-01-30T04:04:38;6.50;1.00
15959;DHT22;8078;47.822;9.402;2024-01-30T04:07:04;6.60;1.00
15959;DHT22;8078;47.822;9.402;2024-01-30T04:09:29;6.60;1.00
15959;DHT22;8078;47.822;9.402;2024-01-30T04:11:55;6.60;1.00
15959;DHT22;8078;47.822;9.402;2024-01-30T04:14:20;6.60;1.00
15959;DHT22;8078;47.822;9.402;2024-01-30T04:16:46;6.60;1.00
15959;DHT22;8078;47.822;9.402;2024-01-30T04:19:11;6.50;1.00
15959;DHT22;8078;47.822;9.402;2024-01-30T04:21:37;6.60;1.00
15959;DHT22;8078;47.822;9.402;2024-01-30T04:24:03;6.50;1.00
15959;DHT22;8078;47.822;9.402;2024-01-30T04:26:28;6.40;1.00
15959;DHT22;8078;47.822;9.402;2024-01-30T04:28:54;6.30;1.00
15959;DHT22;8078;47.822;9.402;2024-01-30T04:31:19;6.60;1.00
15959;DHT22;8078;47.822;9.402;2024-01-30T04:33:45;6.70;1.00
15959;DHT22;8078;47.822;9.402;2024-01-30T04:36:10;6.70;1.00
15959;DHT22;8078;47.822;9.402;2024-01-30T04:38:37;6.70;1.00
15959;DHT22;8078;47.822;9.402;2024-01-30T04:41:03;6.70;1.00
15959;DHT22;8078;47.822;9.402;2024-01-30T04:43:29;6.70;1.00
15959;DHT22;8078;47.822;9.402;2024-01-30T04:45:55;6.70;1.00
15959;DHT22;8078;47.822;9.402;2024-01-30T04:48:21;6.60;1.00
15959;DHT22;8078;47.822;9.402;2024-01-30T04:50:46;6.60;1.00
15959;DHT22;8078;47.822;9.402;2024-01-30T04:53:12;6.60;1.00
15959;DHT22;8078;47.822;9.402;2024-01-30T04:55:37;6.60;1.00
15959;DHT22;8078;47.822;9.402;2024-01-30T04:58:03;6.70;1.00
15959;DHT22;8078;47.822;9.402;2024-01-30T05:00:28;6.70;1.00
15959;DHT22;8078;47.822;9.402;2024-01-30T05:02:57;6.70;1.00
15959;DHT22;8078;47.822;9.402;2024-01-30T05:05:23;6.70;1.00
15959;DHT22;8078;47.822;9.402;2024-01-30T05:07:48;6.70;1.00
15959;DHT22;8078;47.822;9.402;2024-01-30T05:10:14;6.70;1.00
15959;DHT22;8078;47.822;9.402;2024-01-30T05:12:40;6.70;1.00
15959;DHT22;8078;47.822;9.402;2024-01-30T05:15:05;6.60;1.00
15959;DHT22;8078;47.822;9.402;2024-01-30T05:17:31;6.60;1.00
15959;DHT22;8078;47.822;9.402;2024-01-30T05:19:57;6.60;1.00
15959;DHT22;8078;47.822;9.402;2024-01-30T05:22:22;6.50;1.00
15959;DHT22;8078;47.822;9.402;2024-01-30T05:24:48;6.40;1.00
15959;DHT22;8078;47.822;9.402;2024-01-30T05:27:13;6.40;1.00
15959;DHT22;8078;47.822;9.402;2024-01-30T05:29:40;6.30;1.00
15959;DHT22;8078;47.822;9.402;2024-01-30T05:32:06;6.20;1.00
15959;DHT22;8078;47.822;9.402;2024-01-30T05:34:32;6.20;1.00
15959;DHT22;8078;47.822;9.402;2024-01-30T05:36:58;6.30;1.00
15959;DHT22;8078;47.822;9.402;2024-01-30T05:39:23;6.30;1.00
15959;DHT22;8078;47.822;9.402;2024-01-30T05:41:49;6.30;1.00
15959;DHT22;8078;47.822;9.402;2024-01-30T05:44:14;6.30;1.00
15959;DHT22;8078;47.822;9.402;2024-01-30T05:46:40;6.20;1.00
15959;DHT22;8078;47.822;9.402;2024-01-30T05:49:05;6.20;1.00
15959;DHT22;8078;47.822;9.402;2024-01-30T05:51:31;6.20;1.00
15959;DHT22;8078;47.822;9.402;2024-01-30T05:53:57;6.10;1.00
15959;DHT22;8078;47.822;9.402;2024-01-30T05:56:22;6.20;1.00
15959;DHT22;8078;47.822;9.402;2024-01-30T05:58:48;6.10;1.00
15959;DHT22;8078;47.822;9.402;2024-01-30T06:01:15;6.10;1.00
15959;DHT22;8078;47.822;9.402;2024-01-30T06:03:41;6.10;1.00
15959;DHT22;8078;47.822;9.402;2024-01-30T06:06:08;6.10;1.00
15959;DHT22;8078;47.822;9.402;2024-01-30T06:08:34;6.00;1.00
15959;DHT22;8078;47.822;9.402;2024-01-30T06:11:00;6.00;1.00
15959;DHT22;8078;47.822;9.402;2024-01-30T06:13:26;6.00;1.00
15959;DHT22;8078;47.822;9.402;2024-01-30T06:15:54;6.00;1.00
15959;DHT22;8078;47.822;9.402;2024-01-30T06:18:20;6.00;1.00
15959;DHT22;8078;47.822;9.402;2024-01-30T06:20:46;5.90;1.00
15959;DHT22;8078;47.822;9.402;2024-01-30T06:23:11;5.90;1.00
15959;DHT22;8078;47.822;9.402;2024-01-30T06:25:38;6.10;1.00
15959;DHT22;8078;47.822;9.402;2024-01-30T06:28:04;5.90;1.00
15959;DHT22;8078;47.822;9.402;2024-01-30T06:30:29;5.90;1.00
15959;DHT22;8078;47.822;9.402;2024-01-30T06:32:55;6.00;1.00
15959;DHT22;8078;47.822;9.402;2024-01-30T06:35:20;5.90;1.00
15959;DHT22;8078;47.822;9.402;2024-01-30T06:37:47;6.00;1.00
15959;DHT22;8078;47.822;9.402;2024-01-30T06:40:12;5.90;1.00
15959;DHT22;8078;47.822;9.402;2024-01-30T06:42:38;5.90;1.00
15959;DHT22;8078;47.822;9.402;2024-01-30T06:45:04;5.90;1.00
15959;DHT22;8078;47.822;9.402;2024-01-30T06:47:29;5.80;1.00
15959;DHT22;8078;47.822;9.402;2024-01-30T06:49:56;5.80;1.00
15959;DHT22;8078;47.822;9.402;2024-01-30T06:52:21;5.70;1.00
15959;DHT22;8078;47.822;9.402;2024-01-30T06:54:47;5.60;1.00
15959;DHT22;8078;47.822;9.402;2024-01-30T06:57:14;5.70;1.00
15959;DHT22;8078;47.822;9.402;2024-01-30T06:59:40;5.80;1.00
15959;DHT22;8078;47.822;9.402;2024-01-30T07:02:11;5.90;1.00
15959;DHT22;8078;47.822;9.402;2024-01-30T07:04:36;6.10;1.00
15959;DHT22;8078;47.822;9.402;2024-01-30T07:07:03;6.20;1.00
15959;DHT22;8078;47.822;9.402;2024-01-30T07:09:30;6.40;1.00
15959;DHT22;8078;47.822;9.402;2024-01-30T07:11:56;6.30;1.00
15959;DHT22;8078;47.822;9.402;2024-01-30T07:14:24;6.40;1.00
15959;DHT22;8078;47.822;9.402;2024-01-30T07:16:49;6.60;1.00
15959;DHT22;8078;47.822;9.402;2024-01-30T07:19:15;6.60;1.00
15959;DHT22;8078;47.822;9.402;2024-01-30T07:21:41;6.70;1.00
15959;DHT22;8078;47.822;9.402;2024-01-30T07:24:06;6.60;1.00
15959;DHT22;8078;47.822;9.402;2024-01-30T07:26:32;6.60;1.00
15959;DHT22;8078;47.822;9.402;2024-01-30T07:28:57;6.60;1.00
15959;DHT22;8078;47.822;9.402;2024-01-30T07:31:23;6.60;1.00
15959;DHT22;8078;47.822;9.402;2024-01-30T07:33:49;6.60;1.00
15959;DHT22;8078;47.822;9.402;2024-01-30T07:36:14;6.60;1.00
15959;DHT22;8078;47.822;9.402;2024-01-30T07:38:40;6.50;1.00
15959;DHT22;8078;47.822;9.402;2024-01-30T07:41:06;6.50;1.00
15959;DHT22;8078;47.822;9.402;2024-01-30T07:43:31;6.40;1.00
15959;DHT22;8078;47.822;9.402;2024-01-30T07:45:57;6.50;1.00
15959;DHT22;8078;47.822;9.402;2024-01-30T07:48:22;6.50;1.00
15959;DHT22;8078;47.822;9.402;2024-01-30T07:50:48;6.60;1.00
15959;DHT22;8078;47.822;9.402;2024-01-30T07:53:13;6.60;1.00
15959;DHT22;8078;47.822;9.402;2024-01-30T07:55:55;6.60;1.00
15959;DHT22;8078;47.822;9.402;2024-01-30T07:58:22;6.60;1.00
15959;DHT22;8078;47.822;9.402;2024-01-30T08:00:49;6.60;1.00
15959;DHT22;8078;47.822;9.402;2024-01-30T08:03:14;6.60;1.00
15959;DHT22;8078;47.822;9.402;2024-01-30T08:05:42;6.70;1.00
15959;DHT22;8078;47.822;9.402;2024-01-30T08:08:07;6.70;1.00
15959;DHT22;8078;47.822;9.402;2024-01-30T08:10:33;6.70;1.00
15959;DHT22;8078;47.822;9.402;2024-01-30T08:12:58;6.70;1.00
15959;DHT22;8078;47.822;9.402;2024-01-30T08:15:24;6.60;1.00
15959;DHT22;8078;47.822;9.402;2024-01-30T08:17:50;6.60;1.00
15959;DHT22;8078;47.822;9.402;2024-01-30T08:20:21;6.50;1.00
15959;DHT22;8078;47.822;9.402;2024-01-30T08:22:46;6.50;1.00
15959;DHT22;8078;47.822;9.402;2024-01-30T08:25:12;6.40;1.00
15959;DHT22;8078;47.822;9.402;2024-01-30T08:27:37;6.40;1.00
15959;DHT22;8078;47.822;9.402;2024-01-30T08:30:05;6.40;1.00
15959;DHT22;8078;47.822;9.402;2024-01-30T08:32:31;6.40;1.00
15959;DHT22;8078;47.822;9.402;2024-01-30T08:34:57;6.30;1.00
15959;DHT22;8078;47.822;9.402;2024-01-30T08:37:23;6.20;1.00
15959;DHT22;8078;47.822;9.402;2024-01-30T08:39:49;6.10;1.00
15959;DHT22;8078;47.822;9.402;2024-01-30T08:42:14;6.10;1.00
15959;DHT22;8078;47.822;9.402;2024-01-30T08:44:40;6.00;1.00
15959;DHT22;8078;47.822;9.402;2024-01-30T08:47:05;6.10;1.00
15959;DHT22;8078;47.822;9.402;2024-01-30T08:49:31;6.10;1.00
15959;DHT22;8078;47.822;9.402;2024-01-30T08:51:57;6.10;1.00
15959;DHT22;8078;47.822;9.402;2024-01-30T08:54:23;5.90;1.00
15959;DHT22;8078;47.822;9.402;2024-01-30T08:56:49;5.90;1.00
15959;DHT22;8078;47.822;9.402;2024-01-30T08:59:15;5.90;1.00
15959;DHT22;8078;47.822;9.402;2024-01-30T09:01:40;5.90;1.00
15959;DHT22;8078;47.822;9.402;2024-01-30T09:04:06;5.80;1.00
15959;DHT22;8078;47.822;9.402;2024-01-30T09:06:31;5.80;1.00
15959;DHT22;8078;47.822;9.402;2024-01-30T09:08:57;5.80;1.00
15959;DHT22;8078;47.822;9.402;2024-01-30T09:11:23;5.70;1.00
15959;DHT22;8078;47.822;9.402;2024-01-30T09:13:49;5.80;1.00
15959;DHT22;8078;47.822;9.402;2024-01-30T09:16:14;5.80;1.00
15959;DHT22;8078;47.822;9.402;2024-01-30T09:18:41;5.90;1.00
15959;DHT22;8078;47.822;9.402;2024-01-30T09:21:07;6.00;1.00
15959;DHT22;8078;47.822;9.402;2024-01-30T09:23:32;6.00;1.00
15959;DHT22;8078;47.822;9.402;2024-01-30T09:25:59;6.00;1.00
15959;DHT22;8078;47.822;9.402;2024-01-30T09:28:24;6.10;1.00
15959;DHT22;8078;47.822;9.402;2024-01-30T09:30:50;6.10;1.00
15959;DHT22;8078;47.822;9.402;2024-01-30T09:33:16;6.10;1.00
15959;DHT22;8078;47.822;9.402;2024-01-30T09:35:41;6.20;1.00
15959;DHT22;8078;47.822;9.402;2024-01-30T09:38:07;6.30;1.00
15959;DHT22;8078;47.822;9.402;2024-01-30T09:40:32;6.10;1.00
15959;DHT22;8078;47.822;9.402;2024-01-30T09:42:59;6.40;1.00
15959;DHT22;8078;47.822;9.402;2024-01-30T09:45:27;6.20;1.00
15959;DHT22;8078;47.822;9.402;2024-01-30T09:47:53;6.40;1.00
15959;DHT22;8078;47.822;9.402;2024-01-30T09:50:19;6.60;1.00
15959;DHT22;8078;47.822;9.402;2024-01-30T09:52:48;6.60;1.00
15959;DHT22;8078;47.822;9.402;2024-01-30T09:55:15;6.70;1.00
15959;DHT22;8078;47.822;9.402;2024-01-30T09:57:41;6.80;1.00
15959;DHT22;8078;47.822;9.402;2024-01-30T10:00:07;6.90;1.00
15959;DHT22;8078;47.822;9.402;2024-01-30T10:02:34;6.90;1.00
15959;DHT22;8078;47.822;9.402;2024-01-30T10:05:00;7.00;1.00
15959;DHT22;8078;47.822;9.402;2024-01-30T10:07:26;6.90;1.00
15959;DHT22;8078;47.822;9.402;2024-01-30T10:09:53;6.90;1.00
15959;DHT22;8078;47.822;9.402;2024-01-30T10:12:18;6.90;1.00
15959;DHT22;8078;47.822;9.402;2024-01-30T10:14:44;7.00;1.00
15959;DHT22;8078;47.822;9.402;2024-01-30T10:17:11;6.90;1.00
15959;DHT22;8078;47.822;9.402;2024-01-30T10:19:40;7.00;1.00
15959;DHT22;8078;47.822;9.402;2024-01-30T10:22:06;7.00;1.00
15959;DHT22;8078;47.822;9.402;2024-01-30T10:24:36;7.00;1.00
15959;DHT22;8078;47.822;9.402;2024-01-30T10:27:02;7.10;1.00
15959;DHT22;8078;47.822;9.402;2024-01-30T10:29:28;7.00;1.00
15959;DHT22;8078;47.822;9.402;2024-01-30T10:32:04;7.10;1.00
15959;DHT22;8078;47.822;9.402;2024-01-30T10:34:30;7.10;1.00
15959;DHT22;8078;47.822;9.402;2024-01-30T10:37:16;7.00;1.00
15959;DHT22;8078;47.822;9.402;2024-01-30T10:39:46;6.80;1.00
15959;DHT22;8078;47.822;9.402;2024-01-30T10:42:17;6.90;1.00
15959;DHT22;8078;47.822;9.402;2024-01-30T10:45:08;6.80;1.00
15959;DHT22;8078;47.822;9.402;2024-01-30T10:47:36;6.80;1.00
15959;DHT22;8078;47.822;9.402;2024-01-30T10:50:02;6.80;1.00
15959;DHT22;8078;47.822;9.402;2024-01-30T10:52:29;6.80;1.00
15959;DHT22;8078;47.822;9.402;2024-01-30T10:54:58;6.90;1.00
15959;DHT22;8078;47.822;9.402;2024-01-30T10:57:25;6.70;1.00
15959;DHT22;8078;47.822;9.402;2024-01-30T10:59:53;6.70;1.00
15959;DHT22;8078;47.822;9.402;2024-01-30T11:02:21;6.90;1.00
15959;DHT22;8078;47.822;9.402;2024-01-30T11:04:49;7.10;1.00
15959;DHT22;8078;47.822;9.402;2024-01-30T11:07:15;7.20;1.00
15959;DHT22;8078;47.822;9.402;2024-01-30T11:09:52;7.20;1.00
15959;DHT22;8078;47.822;9.402;2024-01-30T11:12:22;7.00;1.00
15959;DHT22;8078;47.822;9.402;2024-01-30T11:14:48;7.00;1.00
15959;DHT22;8078;47.822;9.402;2024-01-30T11:17:13;6.90;1.00
15959;DHT22;8078;47.822;9.402;2024-01-30T11:19:41;7.00;1.00
15959;DHT22;8078;47.822;9.402;2024-01-30T11:22:07;7.00;1.00
15959;DHT22;8078;47.822;9.402;2024-01-30T11:24:40;7.00;1.00
15959;DHT22;8078;47.822;9.402;2024-01-30T11:27:09;7.10;1.00
15959;DHT22;8078;47.822;9.402;2024-01-30T11:29:36;7.20;1.00
15959;DHT22;8078;47.822;9.402;2024-01-30T11:32:02;7.10;1.00
15959;DHT22;8078;47.822;9.402;2024-01-30T11:34:28;7.00;1.00
15959;DHT22;8078;47.822;9.402;2024-01-30T11:36:58;7.10;1.00
15959;DHT22;8078;47.822;9.402;2024-01-30T11:39:29;7.10;1.00
15959;DHT22;8078;47.822;9.402;2024-01-30T11:41:55;7.00;1.00
15959;DHT22;8078;47.822;9.402;2024-01-30T11:44:22;7.10;1.00
15959;DHT22;8078;47.822;9.402;2024-01-30T11:46:48;7.10;1.00
15959;DHT22;8078;47.822;9.402;2024-01-30T11:49:14;7.20;1.00
15959;DHT22;8078;47.822;9.402;2024-01-30T11:51:41;7.10;1.00
15959;DHT22;8078;47.822;9.402;2024-01-30T11:54:07;7.20;1.00
15959;DHT22;8078;47.822;9.402;2024-01-30T11:56:33;7.30;1.00
15959;DHT22;8078;47.822;9.402;2024-01-30T11:58:59;7.30;1.00
15959;DHT22;8078;47.822;9.402;2024-01-30T12:01:26;7.40;1.00
15959;DHT22;8078;47.822;9.402;2024-01-30T12:03:52;7.40;1.00
15959;DHT22;8078;47.822;9.402;2024-01-30T12:06:17;7.50;1.00
15959;DHT22;8078;47.822;9.402;2024-01-30T12:08:54;7.60;1.00
15959;DHT22;8078;47.822;9.402;2024-01-30T12:11:20;7.60;1.00
15959;DHT22;8078;47.822;9.402;2024-01-30T12:13:45;7.70;1.00
15959;DHT22;8078;47.822;9.402;2024-01-30T12:16:11;7.80;1.00
15959;DHT22;8078;47.822;9.402;2024-01-30T12:18:36;8.10;1.00
15959;DHT22;8078;47.822;9.402;2024-01-30T12:21:02;8.20;1.00
15959;DHT22;8078;47.822;9.402;2024-01-30T12:23:28;8.10;1.00
15959;DHT22;8078;47.822;9.402;2024-01-30T12:25:54;8.20;1.00
15959;DHT22;8078;47.822;9.402;2024-01-30T12:28:20;8.20;1.00
15959;DHT22;8078;47.822;9.402;2024-01-30T12:30:46;8.00;1.00
15959;DHT22;8078;47.822;9.402;2024-01-30T12:33:18;8.10;1.00
15959;DHT22;8078;47.822;9.402;2024-01-30T12:35:47;7.90;1.00
15959;DHT22;8078;47.822;9.402;2024-01-30T12:38:14;8.20;1.00
15959;DHT22;8078;47.822;9.402;2024-01-30T12:40:39;8.00;1.00
15959;DHT22;8078;47.822;9.402;2024-01-30T12:43:05;7.90;1.00
15959;DHT22;8078;47.822;9.402;2024-01-30T12:45:31;8.00;1.00
15959;DHT22;8078;47.822;9.402;2024-01-30T12:47:56;7.90;1.00
15959;DHT22;8078;47.822;9.402;2024-01-30T12:50:23;7.90;1.00
15959;DHT22;8078;47.822;9.402;2024-01-30T12:52:49;7.90;1.00
15959;DHT22;8078;47.822;9.402;2024-01-30T12:55:16;7.80;1.00
15959;DHT22;8078;47.822;9.402;2024-01-30T12:57:42;7.90;1.00
15959;DHT22;8078;47.822;9.402;2024-01-30T13:00:08;7.90;1.00
15959;DHT22;8078;47.822;9.402;2024-01-30T13:02:34;7.70;1.00
15959;DHT22;8078;47.822;9.402;2024-01-30T13:05:03;7.70;1.00
15959;DHT22;8078;47.822;9.402;2024-01-30T13:07:29;7.60;1.00
15959;DHT22;8078;47.822;9.402;2024-01-30T13:09:56;7.60;1.00
15959;DHT22;8078;47.822;9.402;2024-01-30T13:12:21;7.80;1.00
15959;DHT22;8078;47.822;9.402;2024-01-30T13:14:47;7.60;1.00
15959;DHT22;8078;47.822;9.402;2024-01-30T13:17:13;7.60;1.00
15959;DHT22;8078;47.822;9.402;2024-01-30T13:19:38;7.70;1.00
15959;DHT22;8078;47.822;9.402;2024-01-30T13:22:04;7.70;1.00
15959;DHT22;8078;47.822;9.402;2024-01-30T13:24:29;7.60;1.00
15959;DHT22;8078;47.822;9.402;2024-01-30T13:26:55;7.60;1.00
15959;DHT22;8078;47.822;9.402;2024-01-30T13:29:20;7.70;1.00
15959;DHT22;8078;47.822;9.402;2024-01-30T13:31:46;7.70;1.00
15959;DHT22;8078;47.822;9.402;2024-01-30T13:34:12;7.70;1.00
15959;DHT22;8078;47.822;9.402;2024-01-30T13:36:39;7.70;1.00
15959;DHT22;8078;47.822;9.402;2024-01-30T13:39:05;7.70;1.00
15959;DHT22;8078;47.822;9.402;2024-01-30T13:41:34;7.70;1.00
15959;DHT22;8078;47.822;9.402;2024-01-30T13:43:59;7.60;1.00
15959;DHT22;8078;47.822;9.402;2024-01-30T13:46:25;7.60;1.00
15959;DHT22;8078;47.822;9.402;2024-01-30T13:48:51;7.60;1.00
15959;DHT22;8078;47.822;9.402;2024-01-30T13:51:16;7.60;1.00
15959;DHT22;8078;47.822;9.402;2024-01-30T13:53:42;7.70;1.00
15959;DHT22;8078;47.822;9.402;2024-01-30T13:56:08;7.70;1.00
15959;DHT22;8078;47.822;9.402;2024-01-30T13:58:34;7.80;1.00
15959;DHT22;8078;47.822;9.402;2024-01-30T14:01:01;8.20;1.00
15959;DHT22;8078;47.822;9.402;2024-01-30T14:03:27;8.70;1.00
15959;DHT22;8078;47.822;9.402;2024-01-30T14:05:53;9.10;1.00
15959;DHT22;8078;47.822;9.402;2024-01-30T14:08:19;9.00;1.00
15959;DHT22;8078;47.822;9.402;2024-01-30T14:10:47;9.20;1.00
15959;DHT22;8078;47.822;9.402;2024-01-30T14:13:12;8.60;1.00
15959;DHT22;8078;47.822;9.402;2024-01-30T14:15:38;8.50;1.00
15959;DHT22;8078;47.822;9.402;2024-01-30T14:18:04;8.60;1.00
15959;DHT22;8078;47.822;9.402;2024-01-30T14:20:30;8.70;1.00
15959;DHT22;8078;47.822;9.402;2024-01-30T14:22:56;8.70;1.00
15959;DHT22;8078;47.822;9.402;2024-01-30T14:25:22;8.70;1.00
15959;DHT22;8078;47.822;9.402;2024-01-30T14:27:47;9.00;1.00
15959;DHT22;8078;47.822;9.402;2024-01-30T14:30:13;9.00;1.00
15959;DHT22;8078;47.822;9.402;2024-01-30T14:32:38;9.30;1.00
15959;DHT22;8078;47.822;9.402;2024-01-30T14:35:06;9.70;1.00
15959;DHT22;8078;47.822;9.402;2024-01-30T14:37:31;10.00;1.00
15959;DHT22;8078;47.822;9.402;2024-01-30T14:39:57;9.30;1.00
15959;DHT22;8078;47.822;9.402;2024-01-30T14:42:22;8.90;1.00
15959;DHT22;8078;47.822;9.402;2024-01-30T14:44:48;8.30;1.00
15959;DHT22;8078;47.822;9.402;2024-01-30T14:47:14;7.90;1.00
15959;DHT22;8078;47.822;9.402;2024-01-30T14:49:40;7.80;1.00
15959;DHT22;8078;47.822;9.402;2024-01-30T14:52:05;7.80;1.00
15959;DHT22;8078;47.822;9.402;2024-01-30T14:54:31;7.90;1.00
15959;DHT22;8078;47.822;9.402;2024-01-30T14:56:57;8.10;1.00
15959;DHT22;8078;47.822;9.402;2024-01-30T14:59:23;8.40;1.00
15959;DHT22;8078;47.822;9.402;2024-01-30T15:01:48;8.70;1.00
15959;DHT22;8078;47.822;9.402;2024-01-30T15:04:14;8.50;1.00
15959;DHT22;8078;47.822;9.402;2024-01-30T15:06:40;8.20;1.00
15959;DHT22;8078;47.822;9.402;2024-01-30T15:09:11;7.90;1.00
15959;DHT22;8078;47.822;9.402;2024-01-30T15:11:39;7.70;1.00
15959;DHT22;8078;47.822;9.402;2024-01-30T15:14:05;7.50;1.00
15959;DHT22;8078;47.822;9.402;2024-01-30T15:16:30;7.40;1.00
15959;DHT22;8078;47.822;9.402;2024-01-30T15:18:56;7.50;1.00
15959;DHT22;8078;47.822;9.402;2024-01-30T15:21:21;7.30;1.00
15959;DHT22;8078;47.822;9.402;2024-01-30T15:23:48;7.20;1.00
15959;DHT22;8078;47.822;9.402;2024-01-30T15:26:14;7.20;1.00
15959;DHT22;8078;47.822;9.402;2024-01-30T15:28:40;7.10;1.00
15959;DHT22;8078;47.822;9.402;2024-01-30T15:31:06;7.00;1.00
15959;DHT22;8078;47.822;9.402;2024-01-30T15:33:32;7.00;1.00
15959;DHT22;8078;47.822;9.402;2024-01-30T15:36:00;6.90;1.00
15959;DHT22;8078;47.822;9.402;2024-01-30T15:38:26;6.80;1.00
15959;DHT22;8078;47.822;9.402;2024-01-30T15:40:53;6.70;1.00
15959;DHT22;8078;47.822;9.402;2024-01-30T15:43:19;6.60;1.00
15959;DHT22;8078;47.822;9.402;2024-01-30T15:45:44;6.50;1.00
15959;DHT22;8078;47.822;9.402;2024-01-30T15:48:10;6.40;1.00
15959;DHT22;8078;47.822;9.402;2024-01-30T15:50:35;6.40;1.00
15959;DHT22;8078;47.822;9.402;2024-01-30T15:53:01;6.30;1.00
15959;DHT22;8078;47.822;9.402;2024-01-30T15:55:26;6.20;1.00
15959;DHT22;8078;47.822;9.402;2024-01-30T15:57:52;6.30;1.00
15959;DHT22;8078;47.822;9.402;2024-01-30T16:00:18;6.20;1.00
15959;DHT22;8078;47.822;9.402;2024-01-30T16:02:44;6.20;1.00
15959;DHT22;8078;47.822;9.402;2024-01-30T16:05:10;6.20;1.00
15959;DHT22;8078;47.822;9.402;2024-01-30T16:07:35;6.20;1.00
15959;DHT22;8078;47.822;9.402;2024-01-30T16:10:01;6.30;1.00